Sophie Blue — CRXK3 — position and weather

sailwx.info

Track history (hours):
 
Tides and Currents Weather Stations Pressure Air Temp Water Temp Dewpoint Dewpoint Depression Visibility Wind Speed Wind Dir Waves Ship Positions

Sophie Blue

Last reported at 2016-Jul-22 17:33 UTC. Time now 2016-Jul-23 13:13 UTC.
Position N 43°16' E 006°40'.

; draft 2.5 m.

Type: Other ship. MMSI: 255901270.

Date/timePositionNaut miles runAvg speedWind from/ knotsBaromVisibWave heightAir tempDewpointWater temp
2016-Jul-22 17:33N 43°16' E 006°40'0 0.0
2016-Jul-22 16:33N 43°16' E 006°40'3 1.4
2016-Jul-22 14:33N 43°14' E 006°40'0 0.0
2016-Jul-22 13:32N 43°14' E 006°40'2412.1
2016-Jul-22 11:33N 43°29' E 007°05'1212.1
2016-Jul-22 10:33N 43°37' E 007°18'9 0.4
2016-Jul-21 13:27N 43°44' E 007°26'0 0.0
2016-Jul-21 12:06N 43°44' E 007°26'0 0.0
2016-Jul-20 19:03N 43°44' E 007°26'3 5.7
2016-Jul-20 18:33N 43°41' E 007°24'1212.5
2016-Jul-20 17:33N 43°33' E 007°12'30 6.0
2016-Jul-20 12:31N 43°16' E 006°37'0 0.0
2016-Jul-20 11:33N 43°16' E 006°37'0 0.0
2016-Jul-20 06:23N 43°16' E 006°37'0 0.0
2016-Jul-20 05:33N 43°16' E 006°37'0 0.0
2016-Jul-20 04:32N 43°16' E 006°37'0 0.0
2016-Jul-19 23:29N 43°16' E 006°37'0 0.0
2016-Jul-19 22:10N 43°16' E 006°37'0 0.0
2016-Jul-19 21:29N 43°16' E 006°37'0 0.0
2016-Jul-19 18:31N 43°16' E 006°37'0 0.0
2016-Jul-19 17:30N 43°16' E 006°37'6 2.1
2016-Jul-19 14:33N 43°19' E 006°44'1211.6
2016-Jul-19 13:33N 43°26' E 006°58'1211.7
2016-Jul-19 12:33N 43°33' E 007°10'1311.6
2016-Jul-19 11:26N 43°41' E 007°24'3 3.1
2016-Jul-19 10:28N 43°44' E 007°25'0 0.0
2016-Jul-19 08:10N 43°44' E 007°25'0 0.0
2016-Jul-17 18:12N 43°44' E 007°25'  
2016-Jul-14 18:08N 43°44' E 007°26'712.1
2016-Jul-14 17:33N 43°38' E 007°20'1212.3
2016-Jul-14 16:34N 43°31' E 007°07'26 0.7
2016-Jul-13 03:32N 43°16' E 006°37'  
Track history (hours):
 
Tides and Currents Weather Stations Pressure Air Temp Water Temp Dewpoint Dewpoint Depression Visibility Wind Speed Wind Dir Waves Ship Positions

Sophie Blue

Last reported at 2016-Jul-22 17:33 UTC. Time now 2016-Jul-23 13:13 UTC.
Position N 43°16' E 006°40'.

; draft 2.5 m.

Type: Other ship. MMSI: 255901270.

Date/timePositionNaut miles runAvg speedWind from/ knotsBaromVisibWave heightAir tempDewpointWater temp
2016-Jul-22 17:33N 43°16' E 006°40'0 0.0
2016-Jul-22 16:33N 43°16' E 006°40'3 1.4
2016-Jul-22 14:33N 43°14' E 006°40'0 0.0
2016-Jul-22 13:32N 43°14' E 006°40'2412.1
2016-Jul-22 11:33N 43°29' E 007°05'1212.1
2016-Jul-22 10:33N 43°37' E 007°18'9 0.4
2016-Jul-21 13:27N 43°44' E 007°26'0 0.0
2016-Jul-21 12:06N 43°44' E 007°26'0 0.0
2016-Jul-20 19:03N 43°44' E 007°26'3 5.7
2016-Jul-20 18:33N 43°41' E 007°24'1212.5
2016-Jul-20 17:33N 43°33' E 007°12'30 6.0
2016-Jul-20 12:31N 43°16' E 006°37'0 0.0
2016-Jul-20 11:33N 43°16' E 006°37'0 0.0
2016-Jul-20 06:23N 43°16' E 006°37'0 0.0
2016-Jul-20 05:33N 43°16' E 006°37'0 0.0
2016-Jul-20 04:32N 43°16' E 006°37'0 0.0
2016-Jul-19 23:29N 43°16' E 006°37'0 0.0
2016-Jul-19 22:10N 43°16' E 006°37'0 0.0
2016-Jul-19 21:29N 43°16' E 006°37'0 0.0
2016-Jul-19 18:31N 43°16' E 006°37'0 0.0
2016-Jul-19 17:30N 43°16' E 006°37'6 2.1
2016-Jul-19 14:33N 43°19' E 006°44'1211.6
2016-Jul-19 13:33N 43°26' E 006°58'1211.7
2016-Jul-19 12:33N 43°33' E 007°10'1311.6
2016-Jul-19 11:26N 43°41' E 007°24'3 3.1
2016-Jul-19 10:28N 43°44' E 007°25'0 0.0
2016-Jul-19 08:10N 43°44' E 007°25'0 0.0
2016-Jul-17 18:12N 43°44' E 007°25'  
2016-Jul-14 18:08N 43°44' E 007°26'712.1
2016-Jul-14 17:33N 43°38' E 007°20'1212.3
2016-Jul-14 16:34N 43°31' E 007°07'26 0.7
2016-Jul-13 03:32N 43°16' E 006°37'  

Dump ship's entire track history